createdAt,value
2018-04-19T00:01:48.527Z,14.23
2018-04-19T00:04:19.478Z,14.19
2018-04-19T00:06:50.431Z,14.16
2018-04-19T00:09:21.465Z,14.13
2018-04-19T00:11:52.497Z,14.11
2018-04-19T00:14:23.595Z,14.08
2018-04-19T00:16:54.632Z,14.06
2018-04-19T00:19:25.615Z,14.03
2018-04-19T00:21:56.346Z,14.00
2018-04-19T00:24:27.478Z,13.94
2018-04-19T00:26:58.405Z,13.95
2018-04-19T00:29:28.234Z,13.91
2018-04-19T00:31:59.293Z,13.88
2018-04-19T00:34:30.398Z,13.81
2018-04-19T00:37:01.366Z,13.81
2018-04-19T00:39:34.607Z,13.78
2018-04-19T00:42:03.654Z,13.75
2018-04-19T00:44:34.431Z,13.71
2018-04-19T00:47:05.350Z,13.67
2018-04-19T00:49:36.418Z,13.66
2018-04-19T00:52:06.928Z,13.64
2018-04-19T00:54:37.682Z,13.60
2018-04-19T00:57:08.430Z,13.59
2018-04-19T00:59:39.370Z,13.57
2018-04-19T01:02:10.406Z,13.53
2018-04-19T01:04:41.442Z,13.50
2018-04-19T01:07:12.278Z,13.47
2018-04-19T01:09:43.314Z,13.45
2018-04-19T01:12:14.388Z,13.43
2018-04-19T01:14:45.373Z,13.40
2018-04-19T01:17:16.379Z,13.37
2018-04-19T01:19:47.435Z,13.34
2018-04-19T01:22:18.454Z,13.30
2018-04-19T01:24:49.270Z,13.26
2018-04-19T01:27:20.366Z,13.22
2018-04-19T01:29:51.467Z,13.19
2018-04-19T01:32:22.331Z,13.16
2018-04-19T01:34:53.394Z,13.12
2018-04-19T01:37:24.446Z,13.11
2018-04-19T01:39:55.385Z,13.08
2018-04-19T01:42:27.027Z,13.08
2018-04-19T01:44:57.784Z,13.07
2018-04-19T01:47:28.406Z,13.04
2018-04-19T01:49:59.514Z,13.00
2018-04-19T01:52:30.031Z,12.96
2018-04-19T01:55:00.653Z,12.93
2018-04-19T01:57:31.433Z,12.91
2018-04-19T02:00:02.578Z,12.90
2018-04-19T02:02:33.422Z,12.88
2018-04-19T02:05:04.054Z,12.86
2018-04-19T02:07:34.783Z,12.84
2018-04-19T02:10:05.512Z,12.81
2018-04-19T02:12:37.854Z,12.78
2018-04-19T02:15:07.792Z,12.77
2018-04-19T02:17:38.434Z,12.75
2018-04-19T02:20:09.682Z,12.71
2018-04-19T02:22:40.358Z,12.68
2018-04-19T02:25:11.052Z,12.64
2018-04-19T02:27:41.779Z,12.60
2018-04-19T02:30:12.490Z,12.57
2018-04-19T02:32:43.451Z,12.53
2018-04-19T02:35:14.404Z,12.49
2018-04-19T02:37:45.386Z,12.47
2018-04-19T02:40:16.499Z,12.45
2018-04-19T02:42:47.538Z,12.42
2018-04-19T02:45:18.525Z,12.39
2018-04-19T02:47:49.507Z,12.36
2018-04-19T02:50:20.575Z,12.33
2018-04-19T02:52:51.333Z,12.32
2018-04-19T02:55:22.385Z,12.30
2018-04-19T02:57:53.267Z,12.27
2018-04-19T03:00:24.363Z,12.25
2018-04-19T03:02:55.378Z,12.22
2018-04-19T03:05:26.119Z,12.20
2018-04-19T03:07:56.814Z,12.18
2018-04-19T03:10:27.526Z,12.14
2018-04-19T03:12:58.580Z,12.11
2018-04-19T03:15:29.423Z,12.06
2018-04-19T03:18:00.062Z,12.03
2018-04-19T03:20:30.738Z,12.01
2018-04-19T03:23:01.367Z,11.99
2018-04-19T03:25:32.481Z,11.96
2018-04-19T03:28:02.539Z,11.95
2018-04-19T03:30:34.199Z,11.92
2018-04-19T03:33:04.557Z,11.90
2018-04-19T03:35:35.291Z,11.88
2018-04-19T03:38:06.431Z,11.87
2018-04-19T03:40:37.388Z,11.85
2018-04-19T03:43:08.278Z,11.84
2018-04-19T03:45:39.338Z,11.83
2018-04-19T03:48:10.503Z,11.81
2018-04-19T03:50:41.403Z,11.81
2018-04-19T03:53:12.138Z,11.80
2018-04-19T03:55:43.211Z,11.78
2018-04-19T03:58:14.198Z,11.78
2018-04-19T04:00:45.270Z,11.76
2018-04-19T04:03:16.288Z,11.74
2018-04-19T04:05:47.383Z,11.71
2018-04-19T04:08:19.004Z,11.69
2018-04-19T04:10:48.813Z,11.65
2018-04-19T04:13:19.417Z,11.66
2018-04-19T04:15:56.275Z,11.64
2018-04-19T04:18:36.654Z,11.62
2018-04-19T04:21:19.212Z,11.62
2018-04-19T04:23:54.865Z,11.61
2018-04-19T04:26:24.198Z,11.59
2018-04-19T04:28:53.255Z,11.58
2018-04-19T04:31:22.328Z,11.57
2018-04-19T04:33:51.541Z,11.58
2018-04-19T04:36:20.862Z,11.58
2018-04-19T04:38:50.186Z,11.59
2018-04-19T04:41:19.298Z,11.60
2018-04-19T04:43:48.578Z,11.61
2018-04-19T04:46:21.050Z,11.63
2018-04-19T04:48:50.350Z,11.65
2018-04-19T04:51:19.363Z,11.67
2018-04-19T04:53:48.932Z,11.68
2018-04-19T04:56:17.895Z,11.71
2018-04-19T04:58:46.922Z,11.75
2018-04-19T05:01:15.937Z,11.79
2018-04-19T05:03:45.539Z,11.84
2018-04-19T05:06:15.243Z,11.89
2018-04-19T05:08:44.851Z,11.93
2018-04-19T05:11:13.891Z,11.97
2018-04-19T05:13:43.127Z,12.01
2018-04-19T05:16:13.985Z,12.04
2018-04-19T05:18:43.701Z,12.09
2018-04-19T05:21:14.815Z,12.14
2018-04-19T05:23:46.598Z,12.19
2018-04-19T05:26:17.134Z,12.26
2018-04-19T05:28:47.893Z,12.31
2018-04-19T05:31:17.963Z,12.37
2018-04-19T05:33:48.795Z,12.42
2018-04-19T05:36:19.472Z,12.46
2018-04-19T05:38:50.365Z,12.52
2018-04-19T05:41:21.376Z,12.57
2018-04-19T05:43:52.494Z,12.63
2018-04-19T05:46:23.197Z,12.69
2018-04-19T05:48:55.674Z,12.75
2018-04-19T05:51:25.559Z,12.83
2018-04-19T05:53:55.939Z,12.88
2018-04-19T05:56:26.969Z,12.96
2018-04-19T05:58:56.672Z,13.06
2018-04-19T06:01:27.528Z,13.13
2018-04-19T06:03:58.285Z,13.21
2018-04-19T06:06:29.386Z,13.27
2018-04-19T06:09:00.393Z,13.37
2018-04-19T06:11:29.933Z,13.44
2018-04-19T06:14:01.355Z,13.55
2018-04-19T06:16:32.583Z,13.66
2018-04-19T06:19:03.467Z,13.79
2018-04-19T06:21:34.456Z,13.93
2018-04-19T06:24:04.993Z,14.11
2018-04-19T06:26:35.876Z,14.21
2018-04-19T06:29:06.483Z,14.31
2018-04-19T06:31:37.410Z,14.39
2018-04-19T06:34:08.165Z,14.52
2018-04-19T06:36:38.922Z,14.66
2018-04-19T06:39:09.709Z,14.75
2018-04-19T06:41:40.478Z,14.90
2018-04-19T06:44:11.167Z,15.07
2018-04-19T06:46:41.741Z,15.21
2018-04-19T06:49:12.463Z,15.35
2018-04-19T06:51:43.496Z,15.48
2018-04-19T06:54:14.321Z,15.59
2018-04-19T06:56:45.290Z,15.71
2018-04-19T06:59:16.021Z,15.84
2018-04-19T07:01:46.854Z,15.97
2018-04-19T07:04:17.392Z,16.09
2018-04-19T07:06:48.564Z,16.23
2018-04-19T07:09:19.031Z,16.41
2018-04-19T07:11:51.018Z,16.54
2018-04-19T07:14:20.711Z,16.90
2018-04-19T07:16:51.450Z,17.10
2018-04-19T07:19:22.411Z,17.23
2018-04-19T07:21:55.335Z,17.34
2018-04-19T07:24:24.350Z,17.40
2018-04-19T07:26:55.094Z,17.60
2018-04-19T07:29:25.689Z,17.70
2018-04-19T07:31:56.706Z,18.20
2018-04-19T07:34:26.667Z,18.28
2018-04-19T07:36:56.146Z,18.24
2018-04-19T07:39:27.063Z,18.52
2018-04-19T07:41:57.703Z,18.79
2018-04-19T07:44:28.791Z,18.87
2018-04-19T07:46:59.700Z,19.20
2018-04-19T07:49:31.207Z,19.31
2018-04-19T07:52:02.199Z,19.41
2018-04-19T07:54:33.434Z,19.42
2018-04-19T07:57:04.564Z,19.50
2018-04-19T07:59:35.606Z,19.68
2018-04-19T08:02:06.334Z,19.83
2018-04-19T08:04:37.384Z,19.90
2018-04-19T08:07:07.976Z,19.92
2018-04-19T08:09:38.716Z,20.07
2018-04-19T08:12:09.254Z,20.21
2018-04-19T08:14:40.274Z,20.39
2018-04-19T08:17:11.380Z,20.61
2018-04-19T08:19:41.946Z,20.72
2018-04-19T08:22:12.362Z,20.76
2018-04-19T08:24:43.374Z,20.80
2018-04-19T08:27:14.313Z,20.73
2018-04-19T08:29:45.374Z,20.75
2018-04-19T08:32:16.285Z,20.86
2018-04-19T08:34:47.289Z,20.96
2018-04-19T08:37:18.328Z,20.97
2018-04-19T08:39:49.358Z,21.02
2018-04-19T08:42:20.321Z,21.18
2018-04-19T08:44:51.360Z,21.33
2018-04-19T08:47:22.599Z,21.48
2018-04-19T08:49:53.434Z,21.49
2018-04-19T08:52:24.390Z,21.58
2018-04-19T08:54:58.839Z,21.79
2018-04-19T08:57:28.066Z,21.93
2018-04-19T08:59:57.869Z,22.23
2018-04-19T09:02:28.478Z,22.40
2018-04-19T09:04:59.337Z,22.63
2018-04-19T09:07:30.339Z,22.69
2018-04-19T09:10:01.155Z,22.76
2018-04-19T09:12:31.922Z,22.74
2018-04-19T09:15:02.350Z,22.73
2018-04-19T09:17:32.250Z,22.92
2018-04-19T09:20:02.930Z,23.07
2018-04-19T09:22:33.724Z,23.25
2018-04-19T09:25:05.102Z,23.39
2018-04-19T09:27:36.170Z,23.45
2018-04-19T09:30:07.005Z,23.67
2018-04-19T09:32:38.082Z,23.82
2018-04-19T09:35:09.202Z,23.77
2018-04-19T09:40:30.812Z,23.57
2018-04-19T09:43:00.033Z,23.66
2018-04-19T09:45:29.286Z,23.83
2018-04-19T09:47:58.278Z,23.81
2018-04-19T09:50:27.303Z,23.98
2018-04-19T09:52:56.344Z,23.91
2018-04-19T09:55:25.499Z,24.28
2018-04-19T09:58:06.899Z,24.30
2018-04-19T10:00:41.638Z,24.18
2018-04-19T10:03:15.931Z,24.27
2018-04-19T10:05:48.200Z,24.25
2018-04-19T10:08:17.272Z,24.46
2018-04-19T10:10:46.238Z,24.41
2018-04-19T10:13:15.266Z,24.10
2018-04-19T10:15:44.202Z,24.12
2018-04-19T10:18:13.166Z,24.45
2018-04-19T10:20:42.242Z,24.58
2018-04-19T10:23:11.173Z,24.65
2018-04-19T10:25:40.199Z,24.64
2018-04-19T10:28:09.301Z,24.81
2018-04-19T10:30:38.371Z,24.77
2018-04-19T10:33:07.407Z,24.98
2018-04-19T10:35:36.431Z,25.02
2018-04-19T10:38:05.368Z,25.15
2018-04-19T10:40:34.465Z,24.90
2018-04-19T10:43:03.593Z,24.97
2018-04-19T10:45:33.597Z,25.34
2018-04-19T10:48:04.407Z,25.21
2018-04-19T10:50:35.322Z,25.59
2018-04-19T10:53:06.400Z,25.33
2018-04-19T10:55:38.302Z,25.33
2018-04-19T10:58:07.922Z,25.71
2018-04-19T11:00:40.276Z,26.15
2018-04-19T11:03:09.825Z,26.14
2018-04-19T11:05:40.469Z,26.29
2018-04-19T11:08:11.289Z,26.35
2018-04-19T11:10:42.343Z,26.36
2018-04-19T11:13:13.314Z,26.59
2018-04-19T11:15:44.357Z,26.60
2018-04-19T11:18:15.375Z,26.18
2018-04-19T11:20:46.387Z,26.32
2018-04-19T11:23:17.218Z,26.43
2018-04-19T11:25:48.239Z,26.60
2018-04-19T11:28:19.194Z,26.59
2018-04-19T11:30:50.223Z,26.70
2018-04-19T11:33:21.170Z,26.40
2018-04-19T11:35:52.233Z,26.85
2018-04-19T11:38:22.851Z,26.72
2018-04-19T11:40:53.076Z,26.67
2018-04-19T11:43:24.064Z,26.52
2018-04-19T11:45:55.099Z,26.94
2018-04-19T11:48:26.046Z,26.76
2018-04-19T11:50:57.054Z,27.23
2018-04-19T11:53:28.089Z,27.63
2018-04-19T11:55:59.086Z,27.60
2018-04-19T11:58:30.077Z,27.64
2018-04-19T12:01:01.166Z,27.05
2018-04-19T12:03:32.343Z,27.52
2018-04-19T12:06:02.165Z,27.64
2018-04-19T12:08:32.874Z,27.73
2018-04-19T12:11:03.697Z,28.03
2018-04-19T12:13:34.831Z,27.49
2018-04-19T12:16:05.792Z,27.17
2018-04-19T12:18:36.970Z,27.28
2018-04-19T12:21:08.195Z,27.78
2018-04-19T12:23:38.636Z,28.04
2018-04-19T12:26:09.512Z,27.47
2018-04-19T12:28:40.538Z,26.93
2018-04-19T12:31:11.224Z,27.47
2018-04-19T12:33:42.690Z,27.42
2018-04-19T12:36:14.302Z,27.69
2018-04-19T12:38:45.341Z,27.10
2018-04-19T12:41:16.384Z,27.09
2018-04-19T12:43:47.351Z,27.63
2018-04-19T12:46:18.426Z,28.07
2018-04-19T12:48:49.370Z,28.04
2018-04-19T12:51:20.106Z,27.47
2018-04-19T12:53:50.766Z,27.84
2018-04-19T12:56:21.669Z,28.25
2018-04-19T12:58:52.422Z,28.11
2018-04-19T13:01:23.270Z,28.35
2018-04-19T13:03:55.272Z,28.07
2018-04-19T13:06:25.084Z,28.22
2018-04-19T13:08:55.733Z,28.24
2018-04-19T13:11:26.318Z,28.41
2018-04-19T13:13:56.793Z,28.47
2018-04-19T13:16:27.397Z,28.71
2018-04-19T13:18:58.435Z,28.76
2018-04-19T13:21:29.495Z,28.73
2018-04-19T13:24:00.286Z,28.72
2018-04-19T13:26:31.329Z,28.81
2018-04-19T13:29:02.271Z,29.11
2018-04-19T13:31:32.907Z,29.24
2018-04-19T13:34:03.431Z,28.98
2018-04-19T13:36:34.362Z,27.95
2018-04-19T13:39:04.603Z,28.23
2018-04-19T13:41:36.406Z,28.44
2018-04-19T13:44:07.182Z,28.67
2018-04-19T13:46:38.023Z,28.30
2018-04-19T13:49:08.627Z,28.63
2018-04-19T13:51:39.378Z,29.01
2018-04-19T13:54:10.110Z,29.19
2018-04-19T13:56:41.018Z,28.78
2018-04-19T13:59:12.117Z,28.47
2018-04-19T14:01:42.872Z,28.19
2018-04-19T14:04:13.943Z,28.66
2018-04-19T14:06:45.107Z,29.15
2018-04-19T14:09:16.066Z,29.15
2018-04-19T14:11:47.706Z,29.10
2018-04-19T14:14:18.390Z,29.52
2018-04-19T14:16:48.901Z,29.41
2018-04-19T14:19:19.525Z,29.65
2018-04-19T14:21:50.706Z,29.72
2018-04-19T14:24:21.414Z,29.67
2018-04-19T14:26:52.442Z,29.75
2018-04-19T14:29:23.575Z,29.45
2018-04-19T14:31:54.250Z,29.63
2018-04-19T14:34:24.868Z,29.52
2018-04-19T14:36:55.584Z,29.92
2018-04-19T14:39:26.372Z,30.12
2018-04-19T14:41:57.290Z,29.99
2018-04-19T14:44:28.320Z,29.24
2018-04-19T14:46:59.351Z,29.14
2018-04-19T14:49:31.650Z,28.70
2018-04-19T14:52:01.639Z,29.23
2018-04-19T14:54:32.503Z,29.68
2018-04-19T14:57:03.451Z,29.77
2018-04-19T14:59:34.085Z,30.02
2018-04-19T15:02:04.913Z,29.79
2018-04-19T15:04:35.374Z,30.02
2018-04-19T15:07:06.483Z,29.59
2018-04-19T15:09:36.763Z,29.85
2018-04-19T15:12:07.543Z,29.99
2018-04-19T15:14:39.233Z,29.04
2018-04-19T15:17:09.899Z,29.38
2018-04-19T15:19:40.658Z,29.32
2018-04-19T15:22:11.787Z,29.37
2018-04-19T15:24:42.558Z,29.28
2018-04-19T15:27:12.450Z,29.40
2018-04-19T15:29:43.005Z,29.40
2018-04-19T15:32:13.793Z,29.16
2018-04-19T15:34:44.635Z,29.20
2018-04-19T15:37:15.206Z,28.99
2018-04-19T15:39:47.576Z,29.05
2018-04-19T15:42:17.983Z,28.62
2018-04-19T15:44:48.933Z,28.72
2018-04-19T15:47:19.859Z,28.17
2018-04-19T15:49:50.995Z,28.02
2018-04-19T15:52:22.226Z,28.36
2018-04-19T15:54:53.072Z,28.59
2018-04-19T15:57:24.110Z,28.59
2018-04-19T15:59:55.017Z,27.95
2018-04-19T16:02:26.160Z,27.85
2018-04-19T16:04:56.773Z,28.08
2018-04-19T16:07:27.727Z,27.76
2018-04-19T16:09:58.660Z,27.51
2018-04-19T16:12:29.792Z,27.58
2018-04-19T16:15:00.621Z,27.11
2018-04-19T16:20:56.568Z,27.22
2018-04-19T16:23:25.601Z,26.79
2018-04-19T16:25:54.536Z,26.80
2018-04-19T16:28:23.519Z,26.57
2018-04-19T16:30:52.623Z,26.83
2018-04-19T16:33:21.605Z,26.38
2018-04-19T16:35:50.566Z,26.30
2018-04-19T16:38:19.685Z,26.79
2018-04-19T16:40:48.639Z,26.79
2018-04-19T16:43:17.658Z,26.80
2018-04-19T16:45:46.695Z,26.81
2018-04-19T16:48:15.655Z,26.78
2018-04-19T16:50:44.656Z,26.50
2018-04-19T16:53:13.707Z,26.24
2018-04-19T16:55:42.699Z,26.36
2018-04-19T16:58:11.598Z,26.21
2018-04-19T17:00:40.503Z,26.16
2018-04-19T17:06:05.548Z,26.40
2018-04-19T17:08:34.640Z,26.49
2018-04-19T17:11:03.571Z,26.40
2018-04-19T17:13:32.609Z,26.42
2018-04-19T17:16:01.524Z,26.30
2018-04-19T17:18:30.461Z,26.20
2018-04-19T17:20:59.443Z,26.16
2018-04-19T17:23:28.358Z,26.18
2018-04-19T17:25:57.317Z,26.12
2018-04-19T17:28:26.319Z,26.03
2018-04-19T17:30:55.283Z,25.99
2018-04-19T17:33:45.890Z,25.94
2018-04-19T17:36:15.166Z,25.81
2018-04-19T17:38:44.294Z,25.77
2018-04-19T17:41:13.258Z,25.68
2018-04-19T17:43:43.778Z,25.58
2018-04-19T17:46:13.209Z,25.51
2018-04-19T17:48:42.163Z,25.43
2018-04-19T17:51:11.188Z,25.36
2018-04-19T17:53:40.141Z,25.29
2018-04-19T17:56:09.166Z,25.22
2018-04-19T17:58:38.517Z,25.15
2018-04-19T18:01:07.495Z,25.08
2018-04-19T18:03:36.439Z,25.03
2018-04-19T18:06:05.446Z,24.97
2018-04-19T18:08:34.380Z,24.90
2018-04-19T18:11:03.384Z,24.85
2018-04-19T18:13:32.424Z,24.79
2018-04-19T18:16:01.449Z,24.74
2018-04-19T18:18:30.906Z,24.67
2018-04-19T18:23:51.402Z,24.52
2018-04-19T18:26:20.357Z,24.44
2018-04-19T18:28:49.338Z,24.34
2018-04-19T18:31:18.359Z,24.24
2018-04-19T18:33:47.313Z,24.15
2018-04-19T18:36:16.265Z,24.06
2018-04-19T18:38:45.338Z,23.98
2018-04-19T18:41:14.307Z,23.89
2018-04-19T18:43:43.255Z,23.78
2018-04-19T18:46:34.250Z,23.74
2018-04-19T18:49:03.443Z,23.74
2018-04-19T18:51:32.450Z,23.63
2018-04-19T18:54:01.462Z,23.57
2018-04-19T18:56:30.495Z,23.54
2018-04-19T18:58:59.460Z,23.50
2018-04-19T19:01:28.435Z,23.45
2018-04-19T19:03:57.462Z,23.36
2018-04-19T19:06:26.560Z,23.33
2018-04-19T19:09:17.891Z,23.28
2018-04-19T19:11:47.275Z,23.26
2018-04-19T19:14:16.291Z,23.24
2018-04-19T19:16:45.490Z,23.21
2018-04-19T19:19:25.645Z,23.18
2018-04-19T19:21:54.626Z,23.15
2018-04-19T19:24:23.695Z,23.11
2018-04-19T19:26:52.702Z,23.08
2018-04-19T19:29:21.669Z,23.05
2018-04-19T19:31:50.630Z,22.97
2018-04-19T19:34:19.659Z,22.90
2018-04-19T19:36:48.669Z,22.85
2018-04-19T19:39:17.620Z,22.81
2018-04-19T19:41:46.477Z,22.77
2018-04-19T19:44:15.448Z,22.73
2018-04-19T19:46:44.641Z,22.69
2018-04-19T19:49:13.640Z,22.64
2018-04-19T19:51:42.582Z,22.59
2018-04-19T19:54:11.591Z,22.54
2018-04-19T19:56:40.631Z,22.49
2018-04-19T19:59:09.874Z,22.42
2018-04-19T20:01:38.721Z,22.39
2018-04-19T20:04:07.730Z,22.34
2018-04-19T20:06:37.258Z,22.30
2018-04-19T20:09:05.879Z,22.26
2018-04-19T20:11:35.561Z,22.21
2018-04-19T20:14:04.610Z,22.15
2018-04-19T20:16:33.568Z,22.10
2018-04-19T20:19:02.618Z,22.02
2018-04-19T20:21:31.687Z,21.95
2018-04-19T20:24:02.486Z,21.90
2018-04-19T20:26:33.475Z,21.83
2018-04-19T20:29:04.405Z,21.76
2018-04-19T20:31:35.106Z,21.70
2018-04-19T20:34:05.853Z,21.65
2018-04-19T20:36:36.380Z,21.60
2018-04-19T20:39:08.037Z,21.55
2018-04-19T20:41:37.777Z,21.52
2018-04-19T20:44:08.443Z,21.46
2018-04-19T20:46:39.455Z,21.41
2018-04-19T20:49:10.894Z,21.38
2018-04-19T20:51:40.615Z,21.34
2018-04-19T20:54:11.365Z,21.30
2018-04-19T20:56:42.282Z,21.26
2018-04-19T20:59:13.304Z,21.20
2018-04-19T21:01:44.258Z,21.15
2018-04-19T21:04:14.898Z,21.08
2018-04-19T21:06:45.194Z,21.05
2018-04-19T21:09:16.578Z,21.01
2018-04-19T21:11:47.294Z,20.94
2018-04-19T21:14:18.376Z,20.88
2018-04-19T21:16:48.774Z,20.84
2018-04-19T21:19:19.255Z,20.77
2018-04-19T21:21:50.197Z,20.48
2018-04-19T21:24:21.249Z,20.20
2018-04-19T21:26:52.199Z,19.98
2018-04-19T21:29:22.842Z,19.77
2018-04-19T21:31:52.748Z,19.62
2018-04-19T21:34:24.306Z,19.49
2018-04-19T21:36:55.276Z,19.35
2018-04-19T21:39:26.356Z,19.23
2018-04-19T21:41:57.345Z,19.13
2018-04-19T21:44:28.350Z,19.03
2018-04-19T21:46:59.322Z,18.94
2018-04-19T21:49:30.350Z,18.87
2018-04-19T21:52:01.325Z,18.79
2018-04-19T21:54:32.434Z,18.73
2018-04-19T21:57:03.391Z,18.68
2018-04-19T21:59:34.377Z,18.60
2018-04-19T22:02:05.238Z,18.56
2018-04-19T22:04:36.285Z,18.48
2018-04-19T22:07:07.267Z,18.41
2018-04-19T22:09:37.928Z,18.33
2018-04-19T22:12:08.646Z,18.23
2018-04-19T22:14:39.509Z,18.18
2018-04-19T22:17:09.980Z,18.10
2018-04-19T22:19:41.118Z,18.01
2018-04-19T22:22:11.747Z,17.97
2018-04-19T22:24:42.468Z,17.89
2018-04-19T22:27:13.330Z,17.80
2018-04-19T22:29:44.397Z,17.80
2018-04-19T22:32:15.302Z,17.77
2018-04-19T22:34:46.330Z,17.72
2018-04-19T22:37:17.298Z,17.67
2018-04-19T22:39:48.355Z,17.62
2018-04-19T22:42:18.901Z,17.58
2018-04-19T22:44:49.265Z,17.52
2018-04-19T22:47:20.243Z,17.42
2018-04-19T22:49:51.267Z,17.38
2018-04-19T22:52:22.235Z,17.34
2018-04-19T22:54:53.262Z,17.29
2018-04-19T22:57:24.298Z,17.25
2018-04-19T22:59:55.367Z,17.20
2018-04-19T23:02:26.325Z,17.15
2018-04-19T23:04:57.282Z,17.09
2018-04-19T23:07:28.270Z,17.04
2018-04-19T23:09:59.290Z,17.00
2018-04-19T23:12:30.106Z,16.96
2018-04-19T23:15:00.793Z,16.92
2018-04-19T23:17:31.357Z,16.89
2018-04-19T23:20:02.422Z,16.85
2018-04-19T23:22:35.545Z,16.81
2018-04-19T23:25:04.733Z,16.78
2018-04-19T23:27:34.614Z,16.74
2018-04-19T23:30:05.136Z,16.70
2018-04-19T23:32:36.232Z,16.65
2018-04-19T23:35:07.027Z,16.60
2018-04-19T23:37:37.680Z,16.56
2018-04-19T23:40:08.398Z,16.52
2018-04-19T23:42:39.389Z,16.48
2018-04-19T23:45:10.289Z,16.44
2018-04-19T23:47:41.269Z,16.39
2018-04-19T23:50:12.327Z,16.36
2018-04-19T23:52:43.236Z,16.31
2018-04-19T23:55:18.686Z,16.26
2018-04-19T23:57:47.734Z,16.20
